createdAt,value
2023-05-15T00:00:49.182Z,63.51
2023-05-15T00:04:03.655Z,63.54
2023-05-15T00:07:05.518Z,63.61
2023-05-15T00:10:08.156Z,63.58
2023-05-15T00:13:09.988Z,63.58
2023-05-15T00:16:12.109Z,63.58
2023-05-15T00:19:14.183Z,63.77
2023-05-15T00:22:15.996Z,63.60
2023-05-15T00:25:18.901Z,63.57
2023-05-15T00:28:20.551Z,63.74
2023-05-15T00:31:22.271Z,63.60
2023-05-15T00:34:24.284Z,63.67
2023-05-15T00:37:25.919Z,63.63
2023-05-15T00:40:28.867Z,63.72
2023-05-15T00:43:30.649Z,63.68
2023-05-15T00:46:35.059Z,63.91
2023-05-15T00:49:37.436Z,63.89
2023-05-15T00:52:39.205Z,63.80
2023-05-15T00:55:41.956Z,63.88
2023-05-15T00:58:45.758Z,63.84
2023-05-15T01:01:47.661Z,63.90
2023-05-15T01:04:49.461Z,63.88
2023-05-15T01:08:22.895Z,63.88
2023-05-15T01:11:35.227Z,63.90
2023-05-15T01:14:38.912Z,63.87
2023-05-15T01:17:41.543Z,63.83
2023-05-15T01:20:51.424Z,64.01
2023-05-15T01:24:22.054Z,64.14
2023-05-15T01:27:49.806Z,64.18
2023-05-15T01:30:54.791Z,64.16
2023-05-15T01:34:02.247Z,64.18
2023-05-15T01:37:06.745Z,64.21
2023-05-15T01:40:11.302Z,64.33
2023-05-15T01:43:21.406Z,64.34
2023-05-15T01:46:25.856Z,64.27
2023-05-15T01:49:30.152Z,64.30
2023-05-15T01:52:38.213Z,64.47
2023-05-15T01:55:41.528Z,64.43
2023-05-15T01:58:43.879Z,64.50
2023-05-15T02:01:46.159Z,64.48
2023-05-15T02:04:48.951Z,64.55
2023-05-15T02:07:51.261Z,64.63
2023-05-15T02:10:53.242Z,64.62
2023-05-15T02:13:57.005Z,64.80
2023-05-15T02:16:58.720Z,64.76
2023-05-15T02:20:04.531Z,64.82
2023-05-15T02:23:06.241Z,64.80
2023-05-15T02:26:29.122Z,64.90
2023-05-15T02:29:36.670Z,64.90
2023-05-15T02:32:47.732Z,64.90
2023-05-15T02:35:56.366Z,64.92
2023-05-15T02:38:58.717Z,64.93
2023-05-15T02:42:00.894Z,64.90
2023-05-15T02:45:03.084Z,65.05
2023-05-15T02:48:06.102Z,65.18
2023-05-15T02:51:07.956Z,65.10
2023-05-15T02:54:09.822Z,65.19
2023-05-15T02:57:11.521Z,65.11
2023-05-15T03:00:15.482Z,65.18
2023-05-15T03:03:17.187Z,65.32
2023-05-15T03:06:18.869Z,65.27
2023-05-15T03:09:20.869Z,65.32
2023-05-15T03:12:22.557Z,65.35
2023-05-15T03:15:24.766Z,65.41
2023-05-15T03:18:26.546Z,65.47
2023-05-15T03:21:28.353Z,65.62
2023-05-15T03:24:30.074Z,65.57
2023-05-15T03:27:31.762Z,65.66
2023-05-15T03:30:33.518Z,65.65
2023-05-15T03:33:35.184Z,65.66
2023-05-15T03:36:36.848Z,65.75
2023-05-15T03:39:39.869Z,65.81
2023-05-15T03:42:41.612Z,65.86
2023-05-15T03:45:43.548Z,65.75
2023-05-15T03:48:45.212Z,65.92
2023-05-15T03:51:46.989Z,66.01
2023-05-15T03:54:49.861Z,66.06
2023-05-15T03:57:53.244Z,66.02
2023-05-15T04:00:55.030Z,66.17
2023-05-15T04:03:56.706Z,66.00
2023-05-15T04:06:58.642Z,66.28
2023-05-15T04:10:00.975Z,66.14
2023-05-15T04:13:02.702Z,66.22
2023-05-15T04:16:04.884Z,66.22
2023-05-15T04:19:06.741Z,66.23
2023-05-15T04:22:08.456Z,66.41
2023-05-15T04:25:11.081Z,66.52
2023-05-15T04:28:13.395Z,66.50
2023-05-15T04:31:15.296Z,66.58
2023-05-15T04:34:16.912Z,66.65
2023-05-15T04:37:18.653Z,66.61
2023-05-15T04:40:20.582Z,66.78
2023-05-15T04:43:22.290Z,66.81
2023-05-15T04:46:24.020Z,66.90
2023-05-15T04:49:25.840Z,66.90
2023-05-15T04:52:27.576Z,66.88
2023-05-15T04:55:30.109Z,66.89
2023-05-15T04:58:32.910Z,66.88
2023-05-15T05:01:34.682Z,67.02
2023-05-15T05:04:36.406Z,66.92
2023-05-15T05:07:38.054Z,67.14
2023-05-15T05:10:39.766Z,67.28
2023-05-15T05:13:41.994Z,67.27
2023-05-15T05:16:46.416Z,67.18
2023-05-15T05:19:48.132Z,67.23
2023-05-15T05:22:49.977Z,67.21
2023-05-15T05:25:51.628Z,67.28
2023-05-15T05:28:53.878Z,67.36
2023-05-15T05:31:55.915Z,67.38
2023-05-15T05:34:57.710Z,67.44
2023-05-15T05:38:00.434Z,67.50
2023-05-15T05:41:02.902Z,67.46
2023-05-15T05:44:04.698Z,67.57
2023-05-15T05:47:06.424Z,67.63
2023-05-15T05:50:08.374Z,67.69
2023-05-15T05:53:10.300Z,67.76
2023-05-15T05:56:12.119Z,67.79
2023-05-15T05:59:14.172Z,67.56
2023-05-15T06:02:16.022Z,67.75
2023-05-15T06:05:17.878Z,67.53
2023-05-15T06:08:20.129Z,67.59
2023-05-15T06:11:22.774Z,67.69
2023-05-15T06:14:26.223Z,67.82
2023-05-15T06:17:27.870Z,67.78
2023-05-15T06:20:29.921Z,67.89
2023-05-15T06:23:31.660Z,67.84
2023-05-15T06:26:33.540Z,67.85
2023-05-15T06:29:35.242Z,67.84
2023-05-15T06:32:36.968Z,67.85
2023-05-15T06:35:38.717Z,68.01
2023-05-15T06:38:40.363Z,68.00
2023-05-15T06:41:42.047Z,68.07
2023-05-15T06:44:44.280Z,68.19
2023-05-15T06:47:46.100Z,68.06
2023-05-15T06:50:47.875Z,68.37
2023-05-15T06:53:49.602Z,68.30
2023-05-15T06:56:51.337Z,68.21
2023-05-15T06:59:53.198Z,68.43
2023-05-15T07:02:54.977Z,68.39
2023-05-15T07:05:56.866Z,68.34
2023-05-15T07:08:58.995Z,68.47
2023-05-15T07:12:00.853Z,68.48
2023-05-15T07:15:03.056Z,68.38
2023-05-15T07:18:06.033Z,68.49
2023-05-15T07:21:07.905Z,68.58
2023-05-15T07:24:09.735Z,68.55
2023-05-15T07:27:11.460Z,68.67
2023-05-15T07:30:13.647Z,68.62
2023-05-15T07:33:15.920Z,68.60
2023-05-15T07:36:18.203Z,69.39
2023-05-15T07:39:20.023Z,69.04
2023-05-15T07:42:21.904Z,68.88
2023-05-15T07:45:24.319Z,68.92
2023-05-15T07:48:26.325Z,68.84
2023-05-15T07:51:28.289Z,68.60
2023-05-15T07:54:31.515Z,68.70
2023-05-15T07:57:36.610Z,68.54
2023-05-15T08:00:42.126Z,68.57
2023-05-15T08:03:43.996Z,68.50
2023-05-15T08:06:45.875Z,68.50
2023-05-15T08:09:47.615Z,68.43
2023-05-15T08:12:50.028Z,68.48
2023-05-15T08:15:51.893Z,68.43
2023-05-15T08:18:57.871Z,68.39
2023-05-15T08:21:59.636Z,68.47
2023-05-15T08:25:03.426Z,68.47
2023-05-15T08:28:05.459Z,68.30
2023-05-15T08:31:07.355Z,68.30
2023-05-15T08:34:09.102Z,68.36
2023-05-15T08:37:10.889Z,68.47
2023-05-15T08:40:12.858Z,68.50
2023-05-15T08:43:17.009Z,68.56
2023-05-15T08:46:19.137Z,68.54
2023-05-15T08:49:31.770Z,68.56
2023-05-15T08:52:34.052Z,68.73
2023-05-15T08:55:35.859Z,68.61
2023-05-15T08:58:37.666Z,68.70
2023-05-15T09:01:39.532Z,68.55
2023-05-15T09:04:41.543Z,68.67
2023-05-15T09:07:45.738Z,68.79
2023-05-15T09:10:49.372Z,68.76
2023-05-15T09:13:51.191Z,68.91
2023-05-15T09:16:53.150Z,68.90
2023-05-15T09:19:55.525Z,68.95
2023-05-15T09:22:59.184Z,68.94
2023-05-15T09:26:01.580Z,68.82
2023-05-15T09:29:04.228Z,68.87
2023-05-15T09:32:07.111Z,68.81
2023-05-15T09:35:47.326Z,68.74
2023-05-15T09:38:49.258Z,68.86
2023-05-15T09:41:52.003Z,68.96
2023-05-15T09:44:53.760Z,68.84
2023-05-15T09:47:58.945Z,69.08
2023-05-15T09:51:01.575Z,69.09
2023-05-15T09:54:03.562Z,69.12
2023-05-15T09:57:12.688Z,69.09
2023-05-15T10:00:19.411Z,68.92
2023-05-15T10:03:21.488Z,68.80
2023-05-15T10:06:23.356Z,68.93
2023-05-15T10:09:31.508Z,68.77
2023-05-15T10:12:35.965Z,68.81
2023-05-15T10:15:39.042Z,68.89
2023-05-15T10:18:44.005Z,68.79
2023-05-15T10:21:47.605Z,68.90
2023-05-15T10:24:57.306Z,68.92
2023-05-15T10:28:00.406Z,69.04
2023-05-15T10:31:02.713Z,69.14
2023-05-15T10:34:06.214Z,69.37
2023-05-15T10:37:08.895Z,69.02
2023-05-15T10:40:12.533Z,69.07
2023-05-15T10:43:14.862Z,68.75
2023-05-15T10:46:16.764Z,68.86
2023-05-15T10:49:19.051Z,68.72
2023-05-15T10:52:20.950Z,68.23
2023-05-15T10:55:23.159Z,68.18
2023-05-15T10:58:24.982Z,68.03
2023-05-15T11:01:32.445Z,68.01
2023-05-15T11:04:34.510Z,68.20
2023-05-15T11:07:36.636Z,68.05
2023-05-15T11:10:38.912Z,68.05
2023-05-15T11:14:02.065Z,67.81
2023-05-15T11:17:11.271Z,67.70
2023-05-15T11:20:13.218Z,67.70
2023-05-15T11:23:15.486Z,67.52
2023-05-15T11:26:31.556Z,67.86
2023-05-15T11:29:34.536Z,68.18
2023-05-15T11:32:52.707Z,68.51
2023-05-15T11:36:01.407Z,68.39
2023-05-15T11:39:10.798Z,68.01
2023-05-15T11:42:13.101Z,67.86
2023-05-15T11:45:14.782Z,67.72
2023-05-15T11:48:17.651Z,67.62
2023-05-15T11:51:21.675Z,67.52
2023-05-15T11:54:24.002Z,67.46
2023-05-15T11:57:25.715Z,67.46
2023-05-15T12:00:27.781Z,67.59
2023-05-15T12:03:33.886Z,67.73
2023-05-15T12:06:35.949Z,67.81
2023-05-15T12:09:38.781Z,67.93
2023-05-15T12:12:42.376Z,67.63
2023-05-15T12:15:45.925Z,66.91
2023-05-15T12:18:49.252Z,66.63
2023-05-15T12:21:51.093Z,66.36
2023-05-15T12:24:52.889Z,65.77
2023-05-15T12:27:55.129Z,65.50
2023-05-15T12:30:57.201Z,65.31
2023-05-15T12:33:59.546Z,65.35
2023-05-15T12:37:02.026Z,65.41
2023-05-15T12:40:09.733Z,65.44
2023-05-15T12:43:12.841Z,65.37
2023-05-15T12:46:14.941Z,65.92
2023-05-15T12:49:22.790Z,65.51
2023-05-15T12:52:28.721Z,65.39
2023-05-15T12:55:34.514Z,64.77
2023-05-15T12:58:38.082Z,64.41
2023-05-15T13:01:41.610Z,64.29
2023-05-15T13:04:46.487Z,64.14
2023-05-15T13:07:48.584Z,64.31
2023-05-15T13:10:57.124Z,64.31
2023-05-15T13:13:58.934Z,64.16
2023-05-15T13:17:04.255Z,63.87
2023-05-15T13:20:07.091Z,63.89
2023-05-15T13:23:10.874Z,64.00
2023-05-15T13:26:13.004Z,63.88
2023-05-15T13:29:15.153Z,63.74
2023-05-15T13:32:17.256Z,63.84
2023-05-15T13:35:19.275Z,63.69
2023-05-15T13:38:21.294Z,63.71
2023-05-15T13:41:23.043Z,63.76
2023-05-15T13:44:24.846Z,63.64
2023-05-15T13:47:26.647Z,63.79
2023-05-15T13:50:28.600Z,63.59
2023-05-15T13:53:30.532Z,63.43
2023-05-15T13:56:32.331Z,63.18
2023-05-15T13:59:34.083Z,62.79
2023-05-15T14:02:36.012Z,62.57
2023-05-15T14:05:37.932Z,62.39
2023-05-15T14:08:39.703Z,61.93
2023-05-15T14:11:41.416Z,61.81
2023-05-15T14:14:46.486Z,61.66
2023-05-15T14:17:48.984Z,61.64
2023-05-15T14:20:51.725Z,61.37
2023-05-15T14:23:53.440Z,61.35
2023-05-15T14:26:55.159Z,61.26
2023-05-15T14:29:57.052Z,61.34
2023-05-15T14:32:58.975Z,61.01
2023-05-15T14:36:01.037Z,60.81
2023-05-15T14:39:03.703Z,60.48
2023-05-15T14:42:05.944Z,60.40
2023-05-15T14:45:07.866Z,60.38
2023-05-15T14:48:11.195Z,60.07
2023-05-15T14:51:13.044Z,59.69
2023-05-15T14:54:14.855Z,59.60
2023-05-15T14:57:19.702Z,59.77
2023-05-15T15:00:21.500Z,59.76
2023-05-15T15:03:24.543Z,59.76
2023-05-15T15:06:27.454Z,59.77
2023-05-15T15:09:29.970Z,59.95
2023-05-15T15:12:31.738Z,59.70
2023-05-15T15:15:34.524Z,59.50
2023-05-15T15:18:36.372Z,59.48
2023-05-15T15:21:38.247Z,59.54
2023-05-15T15:24:40.051Z,59.30
2023-05-15T15:27:41.929Z,59.28
2023-05-15T15:30:43.737Z,59.34
2023-05-15T15:33:45.463Z,59.47
2023-05-15T15:36:47.469Z,59.56
2023-05-15T15:39:49.448Z,59.64
2023-05-15T15:42:51.244Z,59.83
2023-05-15T15:45:53.872Z,59.80
2023-05-15T15:48:55.695Z,59.75
2023-05-15T15:51:57.602Z,59.58
2023-05-15T15:55:02.374Z,59.59
2023-05-15T15:58:04.111Z,59.33
2023-05-15T16:01:05.959Z,59.25
2023-05-15T16:04:08.117Z,59.47
2023-05-15T16:07:09.917Z,59.49
2023-05-15T16:10:13.169Z,59.47
2023-05-15T16:13:15.455Z,59.61
2023-05-15T16:16:17.356Z,59.57
2023-05-15T16:19:19.219Z,59.63
2023-05-15T16:22:21.904Z,59.45
2023-05-15T16:25:23.638Z,59.57
2023-05-15T16:28:25.584Z,59.83
2023-05-15T16:31:27.390Z,59.84
2023-05-15T16:34:29.152Z,60.19
2023-05-15T16:37:30.887Z,60.28
2023-05-15T16:40:32.654Z,60.40
2023-05-15T16:43:35.026Z,60.50
2023-05-15T16:46:37.489Z,60.61
2023-05-15T16:49:40.063Z,60.72
2023-05-15T16:52:46.616Z,60.98
2023-05-15T16:55:48.683Z,61.17
2023-05-15T16:58:52.362Z,61.20
2023-05-15T17:01:54.056Z,61.29
2023-05-15T17:04:57.278Z,61.24
2023-05-15T17:08:00.124Z,61.37
2023-05-15T17:11:02.585Z,61.46
2023-05-15T17:14:04.334Z,61.56
2023-05-15T17:17:05.997Z,61.35
2023-05-15T17:20:08.652Z,61.16
2023-05-15T17:23:10.316Z,61.22
2023-05-15T17:26:12.077Z,61.26
2023-05-15T17:29:14.352Z,61.35
2023-05-15T17:32:16.100Z,61.41
2023-05-15T17:35:18.522Z,61.41
2023-05-15T17:38:20.209Z,61.49
2023-05-15T17:41:21.949Z,61.54
2023-05-15T17:44:29.199Z,61.60
2023-05-15T17:47:31.038Z,61.91
2023-05-15T17:50:37.814Z,62.08
2023-05-15T17:53:39.668Z,62.18
2023-05-15T17:56:41.946Z,62.40
2023-05-15T17:59:43.636Z,62.51
2023-05-15T18:02:45.367Z,62.75
2023-05-15T18:05:47.548Z,62.92
2023-05-15T18:08:50.757Z,62.96
2023-05-15T18:11:52.506Z,62.99
2023-05-15T18:14:54.363Z,63.07
2023-05-15T18:17:56.847Z,63.30
2023-05-15T18:20:58.810Z,63.44
2023-05-15T18:24:00.516Z,63.45
2023-05-15T18:27:03.192Z,63.67
2023-05-15T18:30:05.574Z,63.80
2023-05-15T18:33:07.799Z,63.81
2023-05-15T18:36:09.689Z,63.99
2023-05-15T18:39:12.007Z,63.98
2023-05-15T18:42:14.190Z,64.08
2023-05-15T18:45:15.947Z,64.07
2023-05-15T18:48:17.642Z,64.23
2023-05-15T18:51:19.291Z,64.18
2023-05-15T18:54:20.985Z,64.32
2023-05-15T18:57:22.664Z,64.54
2023-05-15T19:00:37.321Z,64.49
2023-05-15T19:03:40.946Z,64.47
2023-05-15T19:06:43.203Z,64.50
2023-05-15T19:09:44.792Z,64.54
2023-05-15T19:12:46.517Z,64.43
2023-05-15T19:15:52.048Z,64.60
2023-05-15T19:18:54.920Z,64.61
2023-05-15T19:21:56.772Z,64.71
2023-05-15T19:24:58.707Z,64.84
2023-05-15T19:28:00.805Z,64.73
2023-05-15T19:31:03.791Z,64.73
2023-05-15T19:34:05.600Z,64.74
2023-05-15T19:37:07.863Z,64.75
2023-05-15T19:40:09.988Z,64.70
2023-05-15T19:43:13.450Z,64.69
2023-05-15T19:46:16.354Z,64.73
2023-05-15T19:49:18.989Z,64.78
2023-05-15T19:52:20.690Z,64.81
2023-05-15T19:55:22.512Z,64.88
2023-05-15T19:58:24.237Z,64.87
2023-05-15T20:01:26.121Z,64.88
2023-05-15T20:04:28.345Z,64.92
2023-05-15T20:07:30.208Z,65.14
2023-05-15T20:10:31.985Z,65.21
2023-05-15T20:13:33.939Z,65.26
2023-05-15T20:16:36.191Z,65.26
2023-05-15T20:19:38.865Z,65.21
2023-05-15T20:22:45.332Z,65.34
2023-05-15T20:25:48.061Z,65.32
2023-05-15T20:28:49.761Z,65.42
2023-05-15T20:31:51.743Z,65.42
2023-05-15T20:34:55.345Z,65.42
2023-05-15T20:37:56.961Z,65.36
2023-05-15T20:40:59.406Z,65.41
2023-05-15T20:44:01.344Z,65.27
2023-05-15T20:47:03.327Z,65.27
2023-05-15T20:50:05.747Z,65.21
2023-05-15T20:53:08.244Z,65.14
2023-05-15T20:56:09.952Z,65.18
2023-05-15T20:59:12.004Z,65.05
2023-05-15T21:02:13.677Z,65.06
2023-05-15T21:05:15.482Z,65.04
2023-05-15T21:08:17.352Z,65.22
2023-05-15T21:11:19.427Z,65.32
2023-05-15T21:14:21.133Z,65.37
2023-05-15T21:17:22.846Z,65.27
2023-05-15T21:20:26.139Z,65.29
2023-05-15T21:23:28.145Z,65.24
2023-05-15T21:26:30.430Z,65.19
2023-05-15T21:29:32.137Z,65.27
2023-05-15T21:32:33.935Z,65.18
2023-05-15T21:35:35.671Z,65.09
2023-05-15T21:38:37.592Z,65.04
2023-05-15T21:41:39.312Z,65.08
2023-05-15T21:44:41.069Z,65.12
2023-05-15T21:47:42.804Z,65.17
2023-05-15T21:50:44.508Z,65.10
2023-05-15T21:53:46.191Z,65.05
2023-05-15T21:56:47.988Z,65.03
2023-05-15T21:59:49.772Z,64.85
2023-05-15T22:02:51.547Z,64.86
2023-05-15T22:05:53.356Z,65.07
2023-05-15T22:08:55.195Z,64.94
2023-05-15T22:11:56.863Z,64.83
2023-05-15T22:14:59.884Z,64.96
2023-05-15T22:18:02.873Z,64.96
2023-05-15T22:21:04.712Z,64.98
2023-05-15T22:24:06.616Z,64.96
2023-05-15T22:27:08.410Z,64.93
2023-05-15T22:30:10.510Z,64.95
2023-05-15T22:33:12.293Z,64.97
2023-05-15T22:36:14.772Z,64.99
2023-05-15T22:39:16.328Z,64.85
2023-05-15T22:42:18.689Z,64.85
2023-05-15T22:45:20.535Z,64.87
2023-05-15T22:48:22.616Z,64.65
2023-05-15T22:51:24.291Z,64.72
2023-05-15T22:54:26.084Z,64.61
2023-05-15T22:57:28.361Z,64.72
2023-05-15T23:00:30.615Z,64.77
2023-05-15T23:03:32.876Z,64.78
2023-05-15T23:06:34.892Z,64.63
2023-05-15T23:09:36.615Z,64.67
2023-05-15T23:12:39.088Z,64.86
2023-05-15T23:15:40.899Z,64.81
2023-05-15T23:18:42.852Z,64.84
2023-05-15T23:21:44.556Z,64.72
2023-05-15T23:24:46.230Z,64.78
2023-05-15T23:27:49.090Z,64.69
2023-05-15T23:30:54.236Z,64.62
2023-05-15T23:33:56.006Z,64.60
2023-05-15T23:36:57.658Z,64.60
2023-05-15T23:39:59.433Z,64.71
2023-05-15T23:43:01.066Z,64.81
2023-05-15T23:46:02.818Z,64.66
2023-05-15T23:49:04.515Z,64.71
2023-05-15T23:52:06.500Z,64.72
2023-05-15T23:55:08.575Z,64.73
2023-05-15T23:58:10.200Z,64.73
